Delta Cathryn — WDE9621 — position and weather

sailwx.info

Track history (hours):
 
Tides and Currents Weather Stations Pressure Air Temp Water Temp Dewpoint Dewpoint Depression Visibility Wind Speed Wind Dir Waves Ship Positions

Delta Cathryn

Owner: BAYDELTA MARITIME, SAN FRANCISCO, CA. More information available from US FCC via Universal Licensing System and Coast Guard Vessel Documentation Center.

Last reported at 2017-Dec-11 17:01 UTC. Time now 2017-Dec-12 14:13 UTC.
Position N 37°48' W 122°24'.

Length 30 m.

Type: Other ship. MMSI: 367419340.

Date/timePositionNaut miles runAvg speedWind from/ knotsBaromVisibWave heightAir tempDewpointWater temp
2017-Dec-11 17:01N 37°48' W 122°24'0 0.0
2017-Dec-11 16:30N 37°48' W 122°24'3 5.9
2017-Dec-11 16:01N 37°49' W 122°20'0 0.9
2017-Dec-11 15:31N 37°49' W 122°20'3 5.8
2017-Dec-11 15:00N 37°49' W 122°23'3 6.9
2017-Dec-11 14:30N 37°48' W 122°19'0 0.8
2017-Dec-11 14:00N 37°48' W 122°19'0 0.2
2017-Dec-11 13:30N 37°48' W 122°19'4 7.9
2017-Dec-11 13:00N 37°51' W 122°23'5 9.3
2017-Dec-11 12:31N 37°55' W 122°25'5 8.6
2017-Dec-11 11:59N 37°59' W 122°25'4 9.2
2017-Dec-11 11:30N 38°02' W 122°21'510.3
2017-Dec-11 11:00N 38°04' W 122°15'0 0.0
2017-Dec-11 04:49N 38°03' W 122°15'0 0.1
2017-Dec-11 04:29N 38°03' W 122°15'0 0.1
2017-Dec-11 04:00N 38°03' W 122°15'4 7.5
2017-Dec-11 03:30N 38°02' W 122°10'2 2.2
2017-Dec-11 02:45N 38°02' W 122°08'0 0.0
2017-Dec-10 15:59N 38°02' W 122°08'0 0.0
2017-Dec-10 15:29N 38°02' W 122°08'0 0.0
2017-Dec-10 15:00N 38°02' W 122°08'0 0.0
2017-Dec-10 14:29N 38°02' W 122°08'0 0.0
2017-Dec-10 13:56N 38°02' W 122°08'0 0.0
2017-Dec-10 11:56N 38°02' W 122°08'0 0.0
2017-Dec-10 03:35N 38°02' W 122°08'2 2.7
2017-Dec-10 02:45N 38°03' W 122°05'2 0.1
2017-Dec-09 11:20N 38°02' W 122°08'0 0.5
2017-Dec-09 10:50N 38°02' W 122°08'2 4.6
2017-Dec-09 10:30N 38°02' W 122°10'2 0.4
2017-Dec-09 06:02N 38°03' W 122°11'1 7.7
2017-Dec-09 05:51N 38°04' W 122°13'4 6.9
2017-Dec-09 05:15N 38°03' W 122°18'3 7.8
2017-Dec-09 04:49N 38°02' W 122°22'3 8.0
2017-Dec-09 04:30N 38°00' W 122°25'4 7.8
2017-Dec-09 04:00N 37°56' W 122°26'4 8.1
2017-Dec-09 03:30N 37°52' W 122°27'4 7.7
2017-Dec-09 03:00N 37°49' W 122°29'4 7.3
2017-Dec-09 02:30N 37°47' W 122°33'4 8.6
2017-Dec-09 02:00N 37°45' W 122°38'2 3.8
2017-Dec-09 01:30N 37°46' W 122°36'4 7.1
2017-Dec-09 01:00N 37°47' W 122°32'4 7.1
2017-Dec-09 00:30N 37°49' W 122°28'3 5.3
2017-Dec-09 00:00N 37°50' W 122°25'3 5.6
2017-Dec-08 23:30N 37°48' W 122°22'2 4.2
2017-Dec-08 23:00N 37°46' W 122°20'0 0.0
2017-Dec-08 22:30N 37°46' W 122°20'0 0.1
2017-Dec-08 22:00N 37°46' W 122°20'0 0.0
2017-Dec-08 21:30N 37°46' W 122°20'0 0.0
2017-Dec-08 21:00N 37°46' W 122°20'0 0.0
2017-Dec-08 20:30N 37°46' W 122°20'0 0.0
2017-Dec-08 20:00N 37°46' W 122°20'0 0.0
2017-Dec-08 19:31N 37°46' W 122°20'0 0.1
2017-Dec-08 19:01N 37°46' W 122°20'0 0.1
2017-Dec-08 18:30N 37°46' W 122°20'0 0.3
2017-Dec-08 18:00N 37°46' W 122°21'0 0.1
2017-Dec-08 17:30N 37°46' W 122°20'0 0.0
2017-Dec-08 17:00N 37°46' W 122°20'0 0.1
2017-Dec-08 16:30N 37°46' W 122°20'0 0.1
2017-Dec-08 16:00N 37°46' W 122°20'0 0.0
2017-Dec-08 15:31N 37°46' W 122°20'0 0.0
2017-Dec-08 15:01N 37°46' W 122°20'0 0.1
2017-Dec-08 14:30N 37°46' W 122°20'0 0.0
2017-Dec-08 14:01N 37°46' W 122°20'0 0.0
2017-Dec-08 13:30N 37°46' W 122°20'0 0.1
2017-Dec-08 13:01N 37°46' W 122°20'0 0.2
2017-Dec-08 12:31N 37°46' W 122°20'0 0.1
2017-Dec-08 12:00N 37°46' W 122°20'0 0.0
2017-Dec-08 11:30N 37°46' W 122°20'0 0.0
2017-Dec-08 11:00N 37°46' W 122°20'0 0.0
2017-Dec-08 10:31N 37°46' W 122°20'0 0.0
2017-Dec-08 10:01N 37°46' W 122°20'0 0.0
2017-Dec-08 09:31N 37°46' W 122°20'0 0.0
2017-Dec-08 09:01N 37°46' W 122°20'0 0.0
2017-Dec-08 08:30N 37°46' W 122°20'0 0.0
2017-Dec-08 08:01N 37°46' W 122°20'0 0.1
2017-Dec-08 07:30N 37°46' W 122°20'0 0.3
2017-Dec-08 07:01N 37°46' W 122°20'0 0.0
2017-Dec-08 06:30N 37°46' W 122°20'0 0.1
2017-Dec-08 06:01N 37°46' W 122°21'0 0.1
2017-Dec-08 05:31N 37°46' W 122°21'0 0.0
2017-Dec-08 05:00N 37°46' W 122°21'0 0.0
2017-Dec-08 04:30N 37°46' W 122°21'0 0.0
2017-Dec-08 04:00N 37°46' W 122°21'0 0.0
2017-Dec-08 03:30N 37°46' W 122°21'0 0.0
2017-Dec-08 03:00N 37°46' W 122°21'2 3.8
2017-Dec-08 02:30N 37°48' W 122°21'1 1.9
2017-Dec-08 02:00N 37°48' W 122°20'0 0.2
2017-Dec-08 01:31N 37°48' W 122°21'3 5.4
2017-Dec-08 01:00N 37°48' W 122°24'0 0.0
2017-Dec-08 00:31N 37°48' W 122°24'0 0.0
2017-Dec-08 00:00N 37°48' W 122°24'0 0.0
2017-Dec-07 23:30N 37°48' W 122°24'0 0.0
2017-Dec-07 23:00N 37°48' W 122°24'0 0.1
2017-Dec-07 22:30N 37°48' W 122°24'3 5.9
2017-Dec-07 22:00N 37°46' W 122°21'1 1.1
2017-Dec-07 21:31N 37°46' W 122°20'0 0.0
2017-Dec-07 21:00N 37°46' W 122°20'0 0.0
2017-Dec-07 20:30N 37°46' W 122°20'0 0.0
2017-Dec-07 20:01N 37°46' W 122°20'0 0.0
2017-Dec-07 19:30N 37°46' W 122°20'0 0.1
2017-Dec-07 19:00N 37°46' W 122°20'0 0.2
2017-Dec-07 18:30N 37°46' W 122°20'0 0.0
2017-Dec-07 18:01N 37°46' W 122°20'0 0.1
2017-Dec-07 17:31N 37°46' W 122°21'0 0.1
2017-Dec-07 17:00N 37°46' W 122°20'0 0.0
2017-Dec-07 16:31N 37°46' W 122°20'0 0.0
2017-Dec-07 16:00N 37°46' W 122°20'0 0.0
2017-Dec-07 15:30N 37°46' W 122°20'0 0.0
2017-Dec-07 15:00N 37°46' W 122°20'0 0.0
2017-Dec-07 14:30N 37°46' W 122°20'2 4.5
2017-Dec-07 14:01N 37°48' W 122°22'1 2.5
2017-Dec-07 13:30N 37°48' W 122°24'0 0.0
2017-Dec-07 13:00N 37°48' W 122°24'0 0.0
2017-Dec-07 12:30N 37°48' W 122°24'0 0.0
2017-Dec-07 12:00N 37°48' W 122°24'0 0.0
2017-Dec-07 11:30N 37°48' W 122°24'0 0.0
2017-Dec-07 11:00N 37°48' W 122°24'0 0.0
2017-Dec-07 10:31N 37°48' W 122°24'0 0.4
2017-Dec-07 10:00N 37°48' W 122°24'5 9.4
2017-Dec-07 09:31N 37°53' W 122°25'4 8.4
2017-Dec-07 09:00N 37°57' W 122°26'4 8.2
2017-Dec-07 08:30N 38°01' W 122°24'5 9.3
2017-Dec-07 08:00N 38°03' W 122°18'3 6.2
2017-Dec-07 07:29N 38°04' W 122°14'0 0.0
2017-Dec-07 07:00N 38°04' W 122°14'1 1.7
2017-Dec-07 06:30N 38°04' W 122°13'3 0.4
2017-Dec-06 23:40N 38°03' W 122°10'1 4.5
2017-Dec-06 23:29N 38°03' W 122°11'0 0.1
2017-Dec-06 21:52N 38°03' W 122°11'3 8.5
2017-Dec-06 21:28N 38°04' W 122°15'2 3.3
2017-Dec-06 20:58N 38°04' W 122°17'  
2017-Dec-04 10:30N 38°02' W 122°09'2 4.2
2017-Dec-04 10:00N 38°03' W 122°11'510.3
2017-Dec-04 09:29N 38°03' W 122°18'510.2
2017-Dec-04 08:57N 38°00' W 122°24'510.2
2017-Dec-04 08:30N 37°56' W 122°26'510.8
2017-Dec-04 08:00N 37°51' W 122°24'3 5.3
2017-Dec-04 07:30N 37°48' W 122°24'0 0.0
2017-Dec-04 07:00N 37°48' W 122°24'0 0.0
2017-Dec-04 06:30N 37°48' W 122°24'0 0.0
2017-Dec-04 06:00N 37°48' W 122°24'0 0.0
2017-Dec-04 05:31N 37°48' W 122°24'0 0.0
2017-Dec-04 05:00N 37°48' W 122°24'0 0.0
2017-Dec-04 04:30N 37°48' W 122°24'0 0.0
2017-Dec-04 04:00N 37°48' W 122°24'0 0.0
2017-Dec-04 03:30N 37°48' W 122°24'0 0.0
2017-Dec-04 03:00N 37°48' W 122°24'0 0.0
2017-Dec-04 02:30N 37°48' W 122°24'0 0.0
2017-Dec-04 02:00N 37°48' W 122°24'0 0.0
2017-Dec-04 01:30N 37°48' W 122°24'0 0.0
2017-Dec-04 01:00N 37°48' W 122°24'0 0.0
2017-Dec-04 00:31N 37°48' W 122°24'0 0.0
2017-Dec-04 00:00N 37°48' W 122°24'0 0.0
2017-Dec-03 23:30N 37°48' W 122°24'0 0.0
2017-Dec-03 23:00N 37°48' W 122°24'0 0.0
2017-Dec-03 22:30N 37°48' W 122°24'0 0.0
2017-Dec-03 22:00N 37°48' W 122°24'0 0.0
2017-Dec-03 21:30N 37°48' W 122°24'0 0.0
2017-Dec-03 21:00N 37°48' W 122°24'0 0.0
2017-Dec-03 20:30N 37°48' W 122°24'0 0.0
2017-Dec-03 20:00N 37°48' W 122°24'0 0.0
2017-Dec-03 19:30N 37°48' W 122°24'0 0.0
2017-Dec-03 19:00N 37°48' W 122°24'0 0.0
2017-Dec-03 18:30N 37°48' W 122°24'0 0.0
2017-Dec-03 18:00N 37°48' W 122°24'0 0.0
2017-Dec-03 17:30N 37°48' W 122°24'0 0.0
2017-Dec-03 17:00N 37°48' W 122°24'0 0.0
2017-Dec-03 16:31N 37°48' W 122°24'0 0.0
2017-Dec-03 16:01N 37°48' W 122°24'0 0.0
2017-Dec-03 15:30N 37°48' W 122°24'3 5.1
2017-Dec-03 15:00N 37°48' W 122°21'1 1.0
2017-Dec-03 14:30N 37°49' W 122°20'0 0.2
2017-Dec-03 14:01N 37°49' W 122°20'1 1.0
2017-Dec-03 13:30N 37°48' W 122°21'1 1.1
2017-Dec-03 13:00N 37°49' W 122°20'0 0.0
2017-Dec-03 12:30N 37°49' W 122°20'0 0.1
2017-Dec-03 12:00N 37°49' W 122°20'0 0.1
2017-Dec-03 11:30N 37°49' W 122°20'3 5.8
2017-Dec-03 11:00N 37°48' W 122°24'0 0.2
2017-Dec-03 10:30N 37°48' W 122°24'0 0.0
2017-Dec-03 10:00N 37°48' W 122°24'0 0.0
2017-Dec-03 09:30N 37°48' W 122°24'0 0.0
2017-Dec-03 09:00N 37°48' W 122°24'0 0.0
2017-Dec-03 08:30N 37°48' W 122°24'0 0.0
2017-Dec-03 08:00N 37°48' W 122°24'0 0.0
2017-Dec-03 07:30N 37°48' W 122°24'0 0.0
2017-Dec-03 07:00N 37°48' W 122°24'0 0.0
2017-Dec-03 06:30N 37°48' W 122°24'0 0.0
2017-Dec-03 06:00N 37°48' W 122°24'0 0.0
2017-Dec-03 05:30N 37°48' W 122°24'0 0.0
2017-Dec-03 05:00N 37°48' W 122°24'0 0.0
2017-Dec-03 04:31N 37°48' W 122°24'0 0.0
2017-Dec-03 04:00N 37°48' W 122°24'1 2.6
2017-Dec-03 03:31N 37°48' W 122°22'3 5.5
2017-Dec-03 03:01N 37°48' W 122°19'0 0.3
2017-Dec-03 02:30N 37°48' W 122°19'1 1.4
2017-Dec-03 02:00N 37°48' W 122°18'0 0.9
2017-Dec-03 01:30N 37°48' W 122°18'1 2.6
2017-Dec-03 01:00N 37°48' W 122°19'3 5.0
2017-Dec-03 00:31N 37°48' W 122°22'4 7.0
2017-Dec-03 00:00N 37°44' W 122°21'3 5.9
2017-Dec-02 23:30N 37°47' W 122°22'4 7.8
2017-Dec-02 23:00N 37°51' W 122°24'5 9.1
2017-Dec-02 22:31N 37°55' W 122°25'0 0.7
2017-Dec-02 22:00N 37°55' W 122°25'2 4.4
2017-Dec-02 21:30N 37°54' W 122°23'1 1.7
2017-Dec-02 21:00N 37°55' W 122°22'0 0.0
2017-Dec-02 20:30N 37°55' W 122°22'1 2.3
2017-Dec-02 20:00N 37°54' W 122°23'3 5.6
2017-Dec-02 19:30N 37°52' W 122°24'4 7.2
2017-Dec-02 19:00N 37°48' W 122°24'0 0.0
2017-Dec-02 18:30N 37°48' W 122°24'0 0.0
2017-Dec-02 18:01N 37°48' W 122°24'0 0.0
2017-Dec-02 17:30N 37°48' W 122°24'0 0.0
2017-Dec-02 17:00N 37°48' W 122°24'0 0.0
2017-Dec-02 16:30N 37°48' W 122°24'0 0.0
2017-Dec-02 16:01N 37°48' W 122°24'0 0.0
2017-Dec-02 15:30N 37°48' W 122°24'0 0.0
2017-Dec-02 15:01N 37°48' W 122°24'0 0.0
2017-Dec-02 14:30N 37°48' W 122°24'3 5.4
2017-Dec-02 14:00N 37°48' W 122°21'1 2.1
2017-Dec-02 13:31N 37°49' W 122°19'2 4.2
2017-Dec-02 13:00N 37°48' W 122°22'2 3.3
2017-Dec-02 12:31N 37°48' W 122°24'0 0.0
2017-Dec-02 12:00N 37°48' W 122°24'0 0.0
2017-Dec-02 11:30N 37°48' W 122°24'0 0.0
2017-Dec-02 11:00N 37°48' W 122°24'0 0.0
2017-Dec-02 10:30N 37°48' W 122°24'0 0.0
2017-Dec-02 10:00N 37°48' W 122°24'0 0.0
2017-Dec-02 09:30N 37°48' W 122°24'0 0.0
2017-Dec-02 09:00N 37°48' W 122°24'0 0.0
2017-Dec-02 08:31N 37°48' W 122°24'0 0.2
2017-Dec-02 08:00N 37°48' W 122°24'5 9.9
2017-Dec-02 07:30N 37°53' W 122°25'2 4.3
2017-Dec-02 07:00N 37°55' W 122°25'0 0.0
2017-Dec-02 06:30N 37°55' W 122°25'0 0.2
2017-Dec-02 06:01N 37°55' W 122°25'1 2.1
2017-Dec-02 05:30N 37°54' W 122°25'4 8.3
2017-Dec-02 05:00N 37°50' W 122°24'2 4.4
2017-Dec-02 04:30N 37°48' W 122°24'0 0.0
2017-Dec-02 04:00N 37°48' W 122°24'0 0.0
2017-Dec-02 03:30N 37°48' W 122°24'0 0.0
2017-Dec-02 03:00N 37°48' W 122°24'0 0.0
2017-Dec-02 02:30N 37°48' W 122°24'0 0.0
2017-Dec-02 02:00N 37°48' W 122°24'0 0.0
2017-Dec-02 01:30N 37°48' W 122°24'0 0.0
2017-Dec-02 01:00N 37°48' W 122°24'0 0.0
2017-Dec-02 00:30N 37°48' W 122°24'0 0.0
2017-Dec-01 23:59N 37°48' W 122°24'0 0.0
2017-Dec-01 23:30N 37°48' W 122°24'4 8.8
2017-Dec-01 23:00N 37°52' W 122°25'611.6
2017-Dec-01 22:27N 37°59' W 122°25'511.5
2017-Dec-01 21:59N 38°03' W 122°20'610.8
2017-Dec-01 21:28N 38°04' W 122°13'4 2.0
2017-Dec-01 19:24N 38°02' W 122°09'3 8.7
2017-Dec-01 19:00N 38°04' W 122°12'5 9.8
2017-Dec-01 18:30N 38°03' W 122°19'510.5
2017-Dec-01 18:00N 38°01' W 122°24'4 8.9
2017-Dec-01 17:30N 37°56' W 122°26'  
Track history (hours):
 
Tides and Currents Weather Stations Pressure Air Temp Water Temp Dewpoint Dewpoint Depression Visibility Wind Speed Wind Dir Waves Ship Positions

Delta Cathryn

Owner: BAYDELTA MARITIME, SAN FRANCISCO, CA. More information available from US FCC via Universal Licensing System and Coast Guard Vessel Documentation Center.

Last reported at 2017-Dec-11 17:01 UTC. Time now 2017-Dec-12 14:13 UTC.
Position N 37°48' W 122°24'.

Length 30 m.

Type: Other ship. MMSI: 367419340.

Date/timePositionNaut miles runAvg speedWind from/ knotsBaromVisibWave heightAir tempDewpointWater temp
2017-Dec-11 17:01N 37°48' W 122°24'0 0.0
2017-Dec-11 16:30N 37°48' W 122°24'3 5.9
2017-Dec-11 16:01N 37°49' W 122°20'0 0.9
2017-Dec-11 15:31N 37°49' W 122°20'3 5.8
2017-Dec-11 15:00N 37°49' W 122°23'3 6.9
2017-Dec-11 14:30N 37°48' W 122°19'0 0.8
2017-Dec-11 14:00N 37°48' W 122°19'0 0.2
2017-Dec-11 13:30N 37°48' W 122°19'4 7.9
2017-Dec-11 13:00N 37°51' W 122°23'5 9.3
2017-Dec-11 12:31N 37°55' W 122°25'5 8.6
2017-Dec-11 11:59N 37°59' W 122°25'4 9.2
2017-Dec-11 11:30N 38°02' W 122°21'510.3
2017-Dec-11 11:00N 38°04' W 122°15'0 0.0
2017-Dec-11 04:49N 38°03' W 122°15'0 0.1
2017-Dec-11 04:29N 38°03' W 122°15'0 0.1
2017-Dec-11 04:00N 38°03' W 122°15'4 7.5
2017-Dec-11 03:30N 38°02' W 122°10'2 2.2
2017-Dec-11 02:45N 38°02' W 122°08'0 0.0
2017-Dec-10 15:59N 38°02' W 122°08'0 0.0
2017-Dec-10 15:29N 38°02' W 122°08'0 0.0
2017-Dec-10 15:00N 38°02' W 122°08'0 0.0
2017-Dec-10 14:29N 38°02' W 122°08'0 0.0
2017-Dec-10 13:56N 38°02' W 122°08'0 0.0
2017-Dec-10 11:56N 38°02' W 122°08'0 0.0
2017-Dec-10 03:35N 38°02' W 122°08'2 2.7
2017-Dec-10 02:45N 38°03' W 122°05'2 0.1
2017-Dec-09 11:20N 38°02' W 122°08'0 0.5
2017-Dec-09 10:50N 38°02' W 122°08'2 4.6
2017-Dec-09 10:30N 38°02' W 122°10'2 0.4
2017-Dec-09 06:02N 38°03' W 122°11'1 7.7
2017-Dec-09 05:51N 38°04' W 122°13'4 6.9
2017-Dec-09 05:15N 38°03' W 122°18'3 7.8
2017-Dec-09 04:49N 38°02' W 122°22'3 8.0
2017-Dec-09 04:30N 38°00' W 122°25'4 7.8
2017-Dec-09 04:00N 37°56' W 122°26'4 8.1
2017-Dec-09 03:30N 37°52' W 122°27'4 7.7
2017-Dec-09 03:00N 37°49' W 122°29'4 7.3
2017-Dec-09 02:30N 37°47' W 122°33'4 8.6
2017-Dec-09 02:00N 37°45' W 122°38'2 3.8
2017-Dec-09 01:30N 37°46' W 122°36'4 7.1
2017-Dec-09 01:00N 37°47' W 122°32'4 7.1
2017-Dec-09 00:30N 37°49' W 122°28'3 5.3
2017-Dec-09 00:00N 37°50' W 122°25'3 5.6
2017-Dec-08 23:30N 37°48' W 122°22'2 4.2
2017-Dec-08 23:00N 37°46' W 122°20'0 0.0
2017-Dec-08 22:30N 37°46' W 122°20'0 0.1
2017-Dec-08 22:00N 37°46' W 122°20'0 0.0
2017-Dec-08 21:30N 37°46' W 122°20'0 0.0
2017-Dec-08 21:00N 37°46' W 122°20'0 0.0
2017-Dec-08 20:30N 37°46' W 122°20'0 0.0
2017-Dec-08 20:00N 37°46' W 122°20'0 0.0
2017-Dec-08 19:31N 37°46' W 122°20'0 0.1
2017-Dec-08 19:01N 37°46' W 122°20'0 0.1
2017-Dec-08 18:30N 37°46' W 122°20'0 0.3
2017-Dec-08 18:00N 37°46' W 122°21'0 0.1
2017-Dec-08 17:30N 37°46' W 122°20'0 0.0
2017-Dec-08 17:00N 37°46' W 122°20'0 0.1
2017-Dec-08 16:30N 37°46' W 122°20'0 0.1
2017-Dec-08 16:00N 37°46' W 122°20'0 0.0
2017-Dec-08 15:31N 37°46' W 122°20'0 0.0
2017-Dec-08 15:01N 37°46' W 122°20'0 0.1
2017-Dec-08 14:30N 37°46' W 122°20'0 0.0
2017-Dec-08 14:01N 37°46' W 122°20'0 0.0
2017-Dec-08 13:30N 37°46' W 122°20'0 0.1
2017-Dec-08 13:01N 37°46' W 122°20'0 0.2
2017-Dec-08 12:31N 37°46' W 122°20'0 0.1
2017-Dec-08 12:00N 37°46' W 122°20'0 0.0
2017-Dec-08 11:30N 37°46' W 122°20'0 0.0
2017-Dec-08 11:00N 37°46' W 122°20'0 0.0
2017-Dec-08 10:31N 37°46' W 122°20'0 0.0
2017-Dec-08 10:01N 37°46' W 122°20'0 0.0
2017-Dec-08 09:31N 37°46' W 122°20'0 0.0
2017-Dec-08 09:01N 37°46' W 122°20'0 0.0
2017-Dec-08 08:30N 37°46' W 122°20'0 0.0
2017-Dec-08 08:01N 37°46' W 122°20'0 0.1
2017-Dec-08 07:30N 37°46' W 122°20'0 0.3
2017-Dec-08 07:01N 37°46' W 122°20'0 0.0
2017-Dec-08 06:30N 37°46' W 122°20'0 0.1
2017-Dec-08 06:01N 37°46' W 122°21'0 0.1
2017-Dec-08 05:31N 37°46' W 122°21'0 0.0
2017-Dec-08 05:00N 37°46' W 122°21'0 0.0
2017-Dec-08 04:30N 37°46' W 122°21'0 0.0
2017-Dec-08 04:00N 37°46' W 122°21'0 0.0
2017-Dec-08 03:30N 37°46' W 122°21'0 0.0
2017-Dec-08 03:00N 37°46' W 122°21'2 3.8
2017-Dec-08 02:30N 37°48' W 122°21'1 1.9
2017-Dec-08 02:00N 37°48' W 122°20'0 0.2
2017-Dec-08 01:31N 37°48' W 122°21'3 5.4
2017-Dec-08 01:00N 37°48' W 122°24'0 0.0
2017-Dec-08 00:31N 37°48' W 122°24'0 0.0
2017-Dec-08 00:00N 37°48' W 122°24'0 0.0
2017-Dec-07 23:30N 37°48' W 122°24'0 0.0
2017-Dec-07 23:00N 37°48' W 122°24'0 0.1
2017-Dec-07 22:30N 37°48' W 122°24'3 5.9
2017-Dec-07 22:00N 37°46' W 122°21'1 1.1
2017-Dec-07 21:31N 37°46' W 122°20'0 0.0
2017-Dec-07 21:00N 37°46' W 122°20'0 0.0
2017-Dec-07 20:30N 37°46' W 122°20'0 0.0
2017-Dec-07 20:01N 37°46' W 122°20'0 0.0
2017-Dec-07 19:30N 37°46' W 122°20'0 0.1
2017-Dec-07 19:00N 37°46' W 122°20'0 0.2
2017-Dec-07 18:30N 37°46' W 122°20'0 0.0
2017-Dec-07 18:01N 37°46' W 122°20'0 0.1
2017-Dec-07 17:31N 37°46' W 122°21'0 0.1
2017-Dec-07 17:00N 37°46' W 122°20'0 0.0
2017-Dec-07 16:31N 37°46' W 122°20'0 0.0
2017-Dec-07 16:00N 37°46' W 122°20'0 0.0
2017-Dec-07 15:30N 37°46' W 122°20'0 0.0
2017-Dec-07 15:00N 37°46' W 122°20'0 0.0
2017-Dec-07 14:30N 37°46' W 122°20'2 4.5
2017-Dec-07 14:01N 37°48' W 122°22'1 2.5
2017-Dec-07 13:30N 37°48' W 122°24'0 0.0
2017-Dec-07 13:00N 37°48' W 122°24'0 0.0
2017-Dec-07 12:30N 37°48' W 122°24'0 0.0
2017-Dec-07 12:00N 37°48' W 122°24'0 0.0
2017-Dec-07 11:30N 37°48' W 122°24'0 0.0
2017-Dec-07 11:00N 37°48' W 122°24'0 0.0
2017-Dec-07 10:31N 37°48' W 122°24'0 0.4
2017-Dec-07 10:00N 37°48' W 122°24'5 9.4
2017-Dec-07 09:31N 37°53' W 122°25'4 8.4
2017-Dec-07 09:00N 37°57' W 122°26'4 8.2
2017-Dec-07 08:30N 38°01' W 122°24'5 9.3
2017-Dec-07 08:00N 38°03' W 122°18'3 6.2
2017-Dec-07 07:29N 38°04' W 122°14'0 0.0
2017-Dec-07 07:00N 38°04' W 122°14'1 1.7
2017-Dec-07 06:30N 38°04' W 122°13'3 0.4
2017-Dec-06 23:40N 38°03' W 122°10'1 4.5
2017-Dec-06 23:29N 38°03' W 122°11'0 0.1
2017-Dec-06 21:52N 38°03' W 122°11'3 8.5
2017-Dec-06 21:28N 38°04' W 122°15'2 3.3
2017-Dec-06 20:58N 38°04' W 122°17'  
2017-Dec-04 10:30N 38°02' W 122°09'2 4.2
2017-Dec-04 10:00N 38°03' W 122°11'510.3
2017-Dec-04 09:29N 38°03' W 122°18'510.2
2017-Dec-04 08:57N 38°00' W 122°24'510.2
2017-Dec-04 08:30N 37°56' W 122°26'510.8
2017-Dec-04 08:00N 37°51' W 122°24'3 5.3
2017-Dec-04 07:30N 37°48' W 122°24'0 0.0
2017-Dec-04 07:00N 37°48' W 122°24'0 0.0
2017-Dec-04 06:30N 37°48' W 122°24'0 0.0
2017-Dec-04 06:00N 37°48' W 122°24'0 0.0
2017-Dec-04 05:31N 37°48' W 122°24'0 0.0
2017-Dec-04 05:00N 37°48' W 122°24'0 0.0
2017-Dec-04 04:30N 37°48' W 122°24'0 0.0
2017-Dec-04 04:00N 37°48' W 122°24'0 0.0
2017-Dec-04 03:30N 37°48' W 122°24'0 0.0
2017-Dec-04 03:00N 37°48' W 122°24'0 0.0
2017-Dec-04 02:30N 37°48' W 122°24'0 0.0
2017-Dec-04 02:00N 37°48' W 122°24'0 0.0
2017-Dec-04 01:30N 37°48' W 122°24'0 0.0
2017-Dec-04 01:00N 37°48' W 122°24'0 0.0
2017-Dec-04 00:31N 37°48' W 122°24'0 0.0
2017-Dec-04 00:00N 37°48' W 122°24'0 0.0
2017-Dec-03 23:30N 37°48' W 122°24'0 0.0
2017-Dec-03 23:00N 37°48' W 122°24'0 0.0
2017-Dec-03 22:30N 37°48' W 122°24'0 0.0
2017-Dec-03 22:00N 37°48' W 122°24'0 0.0
2017-Dec-03 21:30N 37°48' W 122°24'0 0.0
2017-Dec-03 21:00N 37°48' W 122°24'0 0.0
2017-Dec-03 20:30N 37°48' W 122°24'0 0.0
2017-Dec-03 20:00N 37°48' W 122°24'0 0.0
2017-Dec-03 19:30N 37°48' W 122°24'0 0.0
2017-Dec-03 19:00N 37°48' W 122°24'0 0.0
2017-Dec-03 18:30N 37°48' W 122°24'0 0.0
2017-Dec-03 18:00N 37°48' W 122°24'0 0.0
2017-Dec-03 17:30N 37°48' W 122°24'0 0.0
2017-Dec-03 17:00N 37°48' W 122°24'0 0.0
2017-Dec-03 16:31N 37°48' W 122°24'0 0.0
2017-Dec-03 16:01N 37°48' W 122°24'0 0.0
2017-Dec-03 15:30N 37°48' W 122°24'3 5.1
2017-Dec-03 15:00N 37°48' W 122°21'1 1.0
2017-Dec-03 14:30N 37°49' W 122°20'0 0.2
2017-Dec-03 14:01N 37°49' W 122°20'1 1.0
2017-Dec-03 13:30N 37°48' W 122°21'1 1.1
2017-Dec-03 13:00N 37°49' W 122°20'0 0.0
2017-Dec-03 12:30N 37°49' W 122°20'0 0.1
2017-Dec-03 12:00N 37°49' W 122°20'0 0.1
2017-Dec-03 11:30N 37°49' W 122°20'3 5.8
2017-Dec-03 11:00N 37°48' W 122°24'0 0.2
2017-Dec-03 10:30N 37°48' W 122°24'0 0.0
2017-Dec-03 10:00N 37°48' W 122°24'0 0.0
2017-Dec-03 09:30N 37°48' W 122°24'0 0.0
2017-Dec-03 09:00N 37°48' W 122°24'0 0.0
2017-Dec-03 08:30N 37°48' W 122°24'0 0.0
2017-Dec-03 08:00N 37°48' W 122°24'0 0.0
2017-Dec-03 07:30N 37°48' W 122°24'0 0.0
2017-Dec-03 07:00N 37°48' W 122°24'0 0.0
2017-Dec-03 06:30N 37°48' W 122°24'0 0.0
2017-Dec-03 06:00N 37°48' W 122°24'0 0.0
2017-Dec-03 05:30N 37°48' W 122°24'0 0.0
2017-Dec-03 05:00N 37°48' W 122°24'0 0.0
2017-Dec-03 04:31N 37°48' W 122°24'0 0.0
2017-Dec-03 04:00N 37°48' W 122°24'1 2.6
2017-Dec-03 03:31N 37°48' W 122°22'3 5.5
2017-Dec-03 03:01N 37°48' W 122°19'0 0.3
2017-Dec-03 02:30N 37°48' W 122°19'1 1.4
2017-Dec-03 02:00N 37°48' W 122°18'0 0.9
2017-Dec-03 01:30N 37°48' W 122°18'1 2.6
2017-Dec-03 01:00N 37°48' W 122°19'3 5.0
2017-Dec-03 00:31N 37°48' W 122°22'4 7.0
2017-Dec-03 00:00N 37°44' W 122°21'3 5.9
2017-Dec-02 23:30N 37°47' W 122°22'4 7.8
2017-Dec-02 23:00N 37°51' W 122°24'5 9.1
2017-Dec-02 22:31N 37°55' W 122°25'0 0.7
2017-Dec-02 22:00N 37°55' W 122°25'2 4.4
2017-Dec-02 21:30N 37°54' W 122°23'1 1.7
2017-Dec-02 21:00N 37°55' W 122°22'0 0.0
2017-Dec-02 20:30N 37°55' W 122°22'1 2.3
2017-Dec-02 20:00N 37°54' W 122°23'3 5.6
2017-Dec-02 19:30N 37°52' W 122°24'4 7.2
2017-Dec-02 19:00N 37°48' W 122°24'0 0.0
2017-Dec-02 18:30N 37°48' W 122°24'0 0.0
2017-Dec-02 18:01N 37°48' W 122°24'0 0.0
2017-Dec-02 17:30N 37°48' W 122°24'0 0.0
2017-Dec-02 17:00N 37°48' W 122°24'0 0.0
2017-Dec-02 16:30N 37°48' W 122°24'0 0.0
2017-Dec-02 16:01N 37°48' W 122°24'0 0.0
2017-Dec-02 15:30N 37°48' W 122°24'0 0.0
2017-Dec-02 15:01N 37°48' W 122°24'0 0.0
2017-Dec-02 14:30N 37°48' W 122°24'3 5.4
2017-Dec-02 14:00N 37°48' W 122°21'1 2.1
2017-Dec-02 13:31N 37°49' W 122°19'2 4.2
2017-Dec-02 13:00N 37°48' W 122°22'2 3.3
2017-Dec-02 12:31N 37°48' W 122°24'0 0.0
2017-Dec-02 12:00N 37°48' W 122°24'0 0.0
2017-Dec-02 11:30N 37°48' W 122°24'0 0.0
2017-Dec-02 11:00N 37°48' W 122°24'0 0.0
2017-Dec-02 10:30N 37°48' W 122°24'0 0.0
2017-Dec-02 10:00N 37°48' W 122°24'0 0.0
2017-Dec-02 09:30N 37°48' W 122°24'0 0.0
2017-Dec-02 09:00N 37°48' W 122°24'0 0.0
2017-Dec-02 08:31N 37°48' W 122°24'0 0.2
2017-Dec-02 08:00N 37°48' W 122°24'5 9.9
2017-Dec-02 07:30N 37°53' W 122°25'2 4.3
2017-Dec-02 07:00N 37°55' W 122°25'0 0.0
2017-Dec-02 06:30N 37°55' W 122°25'0 0.2
2017-Dec-02 06:01N 37°55' W 122°25'1 2.1
2017-Dec-02 05:30N 37°54' W 122°25'4 8.3
2017-Dec-02 05:00N 37°50' W 122°24'2 4.4
2017-Dec-02 04:30N 37°48' W 122°24'0 0.0
2017-Dec-02 04:00N 37°48' W 122°24'0 0.0
2017-Dec-02 03:30N 37°48' W 122°24'0 0.0
2017-Dec-02 03:00N 37°48' W 122°24'0 0.0
2017-Dec-02 02:30N 37°48' W 122°24'0 0.0
2017-Dec-02 02:00N 37°48' W 122°24'0 0.0
2017-Dec-02 01:30N 37°48' W 122°24'0 0.0
2017-Dec-02 01:00N 37°48' W 122°24'0 0.0
2017-Dec-02 00:30N 37°48' W 122°24'0 0.0
2017-Dec-01 23:59N 37°48' W 122°24'0 0.0
2017-Dec-01 23:30N 37°48' W 122°24'4 8.8
2017-Dec-01 23:00N 37°52' W 122°25'611.6
2017-Dec-01 22:27N 37°59' W 122°25'511.5
2017-Dec-01 21:59N 38°03' W 122°20'610.8
2017-Dec-01 21:28N 38°04' W 122°13'4 2.0
2017-Dec-01 19:24N 38°02' W 122°09'3 8.7
2017-Dec-01 19:00N 38°04' W 122°12'5 9.8
2017-Dec-01 18:30N 38°03' W 122°19'510.5
2017-Dec-01 18:00N 38°01' W 122°24'4 8.9
2017-Dec-01 17:30N 37°56' W 122°26'  

Dump ship's entire track history